createdAt,value
2022-09-03T00:01:25.173Z,65.69
2022-09-03T00:03:31.154Z,65.98
2022-09-03T00:05:40.041Z,65.86
2022-09-03T00:07:49.168Z,66.14
2022-09-03T00:09:57.099Z,66.01
2022-09-03T00:12:04.566Z,66.20
2022-09-03T00:14:10.877Z,66.30
2022-09-03T00:16:16.065Z,66.26
2022-09-03T00:18:22.356Z,66.67
2022-09-03T00:20:29.367Z,67.25
2022-09-03T00:22:37.018Z,66.52
2022-09-03T00:24:42.224Z,66.98
2022-09-03T00:26:46.992Z,67.60
2022-09-03T00:28:53.835Z,67.11
2022-09-03T00:31:06.737Z,66.98
2022-09-03T00:33:13.213Z,66.98
2022-09-03T00:35:21.747Z,66.60
2022-09-03T00:37:24.757Z,66.97
2022-09-03T00:39:31.218Z,66.51
2022-09-03T00:41:38.642Z,66.61
2022-09-03T00:44:01.412Z,66.80
2022-09-03T00:46:09.534Z,66.24
2022-09-03T00:48:19.046Z,66.68
2022-09-03T00:50:33.298Z,66.86
2022-09-03T00:52:47.396Z,67.10
2022-09-03T00:54:57.191Z,67.07
2022-09-03T00:57:08.049Z,67.28
2022-09-03T00:59:22.804Z,67.32
2022-09-03T01:01:30.462Z,67.25
2022-09-03T01:03:37.936Z,67.87
2022-09-03T01:05:55.055Z,67.29
2022-09-03T01:08:11.775Z,67.85
2022-09-03T01:10:26.159Z,67.23
2022-09-03T01:12:36.210Z,67.19
2022-09-03T01:14:47.407Z,67.19
2022-09-03T01:16:53.416Z,66.99
2022-09-03T01:19:05.392Z,66.94
2022-09-03T01:21:29.562Z,67.52
2022-09-03T01:24:07.387Z,67.04
2022-09-03T01:26:23.348Z,67.17
2022-09-03T01:28:45.330Z,66.43
2022-09-03T01:30:57.132Z,66.85
2022-09-03T01:33:06.343Z,66.69
2022-09-03T01:35:16.377Z,67.69
2022-09-03T01:37:28.338Z,66.83
2022-09-03T01:39:35.993Z,66.49
2022-09-03T01:42:05.564Z,67.40
2022-09-03T01:44:16.778Z,67.24
2022-09-03T01:46:23.003Z,66.68
2022-09-03T01:48:41.816Z,66.95
2022-09-03T01:50:47.751Z,66.82
2022-09-03T01:52:55.004Z,67.33
2022-09-03T01:55:07.212Z,66.58
2022-09-03T01:57:36.680Z,66.65
2022-09-03T01:59:46.722Z,66.91
2022-09-03T02:01:56.877Z,66.97
2022-09-03T02:04:00.386Z,66.57
2022-09-03T02:06:07.152Z,67.43
2022-09-03T02:08:11.675Z,67.41
2022-09-03T02:10:17.152Z,67.05
2022-09-03T02:12:21.676Z,67.12
2022-09-03T02:14:25.708Z,67.25
2022-09-03T02:16:33.042Z,66.27
2022-09-03T02:18:41.357Z,66.46
2022-09-03T02:20:44.745Z,66.40
2022-09-03T02:22:48.851Z,66.20
2022-09-03T02:24:52.148Z,66.89
2022-09-03T02:26:55.793Z,66.79
2022-09-03T02:28:59.004Z,66.70
2022-09-03T02:31:02.787Z,66.02
2022-09-03T02:33:07.312Z,65.91
2022-09-03T02:35:11.043Z,66.01
2022-09-03T02:37:18.267Z,66.51
2022-09-03T02:39:21.177Z,66.75
2022-09-03T02:41:27.336Z,66.80
2022-09-03T02:43:36.115Z,67.32
2022-09-03T02:45:44.262Z,66.83
2022-09-03T02:47:49.333Z,67.09
2022-09-03T02:49:53.666Z,66.09
2022-09-03T02:52:00.785Z,67.21
2022-09-03T02:54:03.960Z,66.62
2022-09-03T02:56:07.538Z,66.52
2022-09-03T02:58:10.577Z,66.75
2022-09-03T03:00:15.078Z,66.96
2022-09-03T03:02:18.132Z,66.59
2022-09-03T03:04:21.317Z,66.67
2022-09-03T03:06:25.663Z,66.89
2022-09-03T03:08:30.283Z,66.96
2022-09-03T03:10:33.255Z,67.16
2022-09-03T03:12:36.403Z,66.63
2022-09-03T03:14:39.403Z,66.76
2022-09-03T03:16:42.511Z,66.60
2022-09-03T03:18:47.317Z,67.14
2022-09-03T03:20:50.212Z,66.73
2022-09-03T03:22:54.569Z,67.13
2022-09-03T03:24:57.888Z,67.10
2022-09-03T03:27:00.894Z,66.88
2022-09-03T03:29:05.714Z,67.02
2022-09-03T03:31:09.364Z,66.62
2022-09-03T03:33:12.452Z,66.53
2022-09-03T03:35:15.804Z,67.66
2022-09-03T03:37:18.865Z,67.17
2022-09-03T03:39:23.202Z,66.74
2022-09-03T03:41:28.212Z,66.60
2022-09-03T03:43:33.564Z,66.66
2022-09-03T03:45:36.584Z,66.94
2022-09-03T03:47:39.621Z,66.88
2022-09-03T03:49:42.752Z,66.57
2022-09-03T03:51:45.764Z,66.65
2022-09-03T03:53:48.764Z,66.80
2022-09-03T03:56:04.467Z,66.80
2022-09-03T03:58:07.450Z,66.63
2022-09-03T04:00:11.385Z,67.33
2022-09-03T04:02:20.025Z,67.25
2022-09-03T04:04:23.064Z,67.61
2022-09-03T04:06:26.017Z,67.70
2022-09-03T04:08:29.579Z,68.02
2022-09-03T04:10:32.612Z,68.39
2022-09-03T04:12:36.909Z,68.14
2022-09-03T04:14:39.983Z,68.53
2022-09-03T04:16:43.278Z,68.21
2022-09-03T04:18:47.220Z,68.55
2022-09-03T04:20:50.446Z,68.58
2022-09-03T04:22:53.460Z,68.67
2022-09-03T04:24:56.447Z,68.73
2022-09-03T04:26:59.503Z,68.42
2022-09-03T04:29:05.577Z,68.42
2022-09-03T04:31:09.588Z,68.48
2022-09-03T04:33:16.169Z,68.76
2022-09-03T04:35:20.454Z,68.69
2022-09-03T04:37:23.467Z,68.96
2022-09-03T04:39:26.883Z,68.58
2022-09-03T04:41:31.077Z,69.08
2022-09-03T04:43:34.142Z,68.65
2022-09-03T04:45:38.486Z,69.23
2022-09-03T04:47:42.225Z,69.40
2022-09-03T04:49:45.203Z,69.76
2022-09-03T04:51:48.178Z,69.61
2022-09-03T04:53:56.560Z,68.75
2022-09-03T04:55:59.660Z,69.49
2022-09-03T04:58:02.904Z,68.85
2022-09-03T05:00:10.581Z,69.41
2022-09-03T05:02:15.537Z,69.88
2022-09-03T05:04:19.156Z,70.40
2022-09-03T05:06:22.129Z,70.70
2022-09-03T05:08:26.493Z,70.25
2022-09-03T05:10:29.759Z,70.32
2022-09-03T05:12:33.378Z,69.80
2022-09-03T05:14:36.547Z,70.27
2022-09-03T05:16:39.907Z,69.92
2022-09-03T05:18:45.077Z,70.13
2022-09-03T05:20:48.207Z,69.91
2022-09-03T05:22:51.225Z,70.05
2022-09-03T05:24:56.207Z,71.09
2022-09-03T05:26:59.325Z,71.36
2022-09-03T05:29:07.568Z,71.23
2022-09-03T05:31:12.362Z,70.39
2022-09-03T05:33:16.538Z,70.65
2022-09-03T05:35:25.358Z,70.27
2022-09-03T05:37:28.977Z,70.44
2022-09-03T05:39:32.157Z,70.41
2022-09-03T05:41:35.404Z,70.25
2022-09-03T05:43:39.149Z,70.76
2022-09-03T05:45:42.189Z,70.65
2022-09-03T05:47:45.233Z,70.76
2022-09-03T05:49:48.254Z,70.78
2022-09-03T05:51:55.026Z,70.22
2022-09-03T05:53:59.000Z,70.06
2022-09-03T05:56:03.147Z,70.43
2022-09-03T05:58:06.093Z,70.00
2022-09-03T06:00:10.911Z,70.46
2022-09-03T06:02:15.175Z,69.93
2022-09-03T06:04:18.269Z,68.40
2022-09-03T06:06:26.504Z,69.34
2022-09-03T06:08:30.982Z,66.93
2022-09-03T06:10:40.697Z,66.90
2022-09-03T06:12:45.018Z,67.10
2022-09-03T06:14:48.052Z,67.00
2022-09-03T06:16:52.849Z,65.46
2022-09-03T06:18:56.416Z,66.55
2022-09-03T06:21:01.249Z,65.41
2022-09-03T06:23:04.302Z,66.48
2022-09-03T06:25:09.831Z,66.78
2022-09-03T06:27:13.064Z,66.86
2022-09-03T06:29:19.839Z,68.51
2022-09-03T06:31:23.783Z,68.20
2022-09-03T06:33:26.834Z,67.18
2022-09-03T06:35:29.863Z,67.08
2022-09-03T06:37:41.053Z,66.38
2022-09-03T06:39:44.127Z,67.30
2022-09-03T06:41:52.002Z,67.92
2022-09-03T06:44:03.668Z,67.41
2022-09-03T06:46:08.821Z,68.48
2022-09-03T06:48:11.849Z,68.29
2022-09-03T06:50:15.211Z,67.01
2022-09-03T06:52:18.251Z,68.01
2022-09-03T06:54:21.222Z,67.62
2022-09-03T06:56:27.023Z,66.68
2022-09-03T06:58:32.712Z,67.71
2022-09-03T07:00:35.781Z,67.57
2022-09-03T07:02:44.822Z,68.95
2022-09-03T07:04:49.850Z,67.04
2022-09-03T07:06:52.849Z,67.32
2022-09-03T07:08:59.722Z,67.30
2022-09-03T07:11:05.352Z,68.92
2022-09-03T07:13:08.352Z,67.11
2022-09-03T07:15:13.009Z,67.55
2022-09-03T07:17:16.416Z,67.63
2022-09-03T07:19:19.724Z,68.02
2022-09-03T07:21:24.118Z,69.18
2022-09-03T07:23:27.265Z,69.42
2022-09-03T07:25:31.417Z,67.79
2022-09-03T07:27:35.840Z,68.82
2022-09-03T07:29:38.852Z,67.57
2022-09-03T07:31:44.406Z,67.03
2022-09-03T07:33:47.747Z,67.98
2022-09-03T07:35:50.731Z,67.55
2022-09-03T07:37:55.125Z,67.52
2022-09-03T07:39:58.331Z,68.40
2022-09-03T07:42:02.636Z,67.70
2022-09-03T07:44:06.564Z,67.74
2022-09-03T07:46:13.056Z,67.24
2022-09-03T07:48:17.969Z,67.84
2022-09-03T07:50:21.102Z,67.17
2022-09-03T07:52:24.186Z,67.25
2022-09-03T07:54:27.919Z,67.19
2022-09-03T07:56:32.054Z,68.03
2022-09-03T07:58:36.356Z,67.25
2022-09-03T08:00:39.617Z,67.00
2022-09-03T08:02:46.123Z,66.12
2022-09-03T08:04:50.859Z,66.01
2022-09-03T08:06:55.646Z,66.30
2022-09-03T08:09:04.959Z,64.95
2022-09-03T08:11:10.789Z,65.47
2022-09-03T08:13:13.808Z,64.83
2022-09-03T08:15:16.878Z,65.61
2022-09-03T08:17:19.886Z,64.81
2022-09-03T08:19:23.230Z,64.44
2022-09-03T08:21:28.562Z,63.83
2022-09-03T08:23:31.655Z,64.80
2022-09-03T08:25:34.661Z,64.92
2022-09-03T08:27:37.680Z,64.91
2022-09-03T08:29:42.043Z,64.17
2022-09-03T08:31:45.443Z,64.91
2022-09-03T08:33:50.787Z,63.78
2022-09-03T08:35:54.995Z,64.08
2022-09-03T08:38:05.286Z,63.53
2022-09-03T08:40:10.624Z,64.50
2022-09-03T08:42:46.462Z,63.70
2022-09-03T08:44:51.702Z,64.04
2022-09-03T08:46:58.060Z,63.76
2022-09-03T08:49:01.817Z,64.15
2022-09-03T08:51:04.979Z,63.17
2022-09-03T08:53:15.961Z,63.34
2022-09-03T08:55:23.195Z,63.28
2022-09-03T08:57:26.745Z,63.04
2022-09-03T08:59:33.249Z,62.60
2022-09-03T09:01:45.390Z,61.83
2022-09-03T09:03:56.761Z,61.72
2022-09-03T09:06:08.047Z,62.40
2022-09-03T09:08:18.025Z,62.08
2022-09-03T09:10:25.356Z,61.11
2022-09-03T09:12:42.788Z,61.66
2022-09-03T09:14:53.513Z,61.38
2022-09-03T09:17:02.320Z,61.04
2022-09-03T09:19:14.490Z,61.74
2022-09-03T09:21:22.597Z,62.75
2022-09-03T09:23:31.413Z,62.13
2022-09-03T09:25:39.130Z,62.74
2022-09-03T09:27:51.743Z,61.26
2022-09-03T09:29:56.345Z,62.12
2022-09-03T09:31:59.566Z,61.49
2022-09-03T09:34:06.761Z,62.66
2022-09-03T09:36:13.565Z,62.36
2022-09-03T09:38:16.844Z,61.66
2022-09-03T09:40:32.190Z,61.40
2022-09-03T09:42:35.157Z,61.64
2022-09-03T09:44:39.010Z,61.39
2022-09-03T09:46:42.921Z,61.08
2022-09-03T09:48:50.903Z,60.40
2022-09-03T09:51:06.068Z,60.89
2022-09-03T09:53:14.766Z,61.21
2022-09-03T09:55:20.322Z,62.09
2022-09-03T09:57:26.356Z,60.14
2022-09-03T09:59:29.471Z,60.57
2022-09-03T10:01:33.194Z,60.38
2022-09-03T10:03:36.593Z,59.67
2022-09-03T10:05:40.639Z,59.74
2022-09-03T10:07:43.853Z,59.83
2022-09-03T10:09:47.053Z,59.92
2022-09-03T10:11:52.266Z,60.47
2022-09-03T10:13:57.464Z,60.96
2022-09-03T10:16:04.554Z,60.72
2022-09-03T10:18:12.337Z,60.75
2022-09-03T10:20:31.176Z,60.66
2022-09-03T10:22:38.989Z,61.07
2022-09-03T10:25:00.212Z,61.05
2022-09-03T10:27:03.296Z,60.83
2022-09-03T10:29:08.820Z,61.27
2022-09-03T10:31:26.845Z,61.62
2022-09-03T10:33:33.495Z,61.34
2022-09-03T10:35:42.074Z,61.40
2022-09-03T10:37:50.859Z,59.90
2022-09-03T10:40:02.304Z,60.39
2022-09-03T10:42:14.890Z,60.03
2022-09-03T10:44:35.601Z,60.04
2022-09-03T10:46:46.449Z,60.80
2022-09-03T10:49:16.012Z,60.82
2022-09-03T10:51:21.546Z,60.80
2022-09-03T10:53:53.572Z,60.96
2022-09-03T10:56:01.511Z,60.66
2022-09-03T10:58:15.823Z,60.69
2022-09-03T11:00:22.347Z,59.16
2022-09-03T11:02:55.246Z,60.22
2022-09-03T11:05:02.861Z,59.47
2022-09-03T11:07:09.049Z,59.70
2022-09-03T11:09:16.599Z,59.42
2022-09-03T11:11:26.508Z,59.73
2022-09-03T11:13:35.413Z,59.93
2022-09-03T11:15:42.533Z,59.28
2022-09-03T11:17:56.790Z,60.29
2022-09-03T11:20:13.005Z,60.44
2022-09-03T11:22:20.981Z,59.56
2022-09-03T11:24:26.648Z,60.33
2022-09-03T11:26:30.095Z,60.00
2022-09-03T11:28:42.286Z,60.06
2022-09-03T11:30:58.486Z,60.29
2022-09-03T11:33:07.277Z,60.05
2022-09-03T11:35:16.273Z,59.87
2022-09-03T11:37:22.433Z,60.57
2022-09-03T11:39:35.735Z,60.32
2022-09-03T11:41:39.738Z,60.47
2022-09-03T11:43:44.061Z,60.81
2022-09-03T11:45:47.164Z,61.09
2022-09-03T11:47:52.239Z,60.44
2022-09-03T11:50:06.947Z,60.22
2022-09-03T11:52:10.732Z,59.92
2022-09-03T11:54:27.097Z,60.46
2022-09-03T11:56:31.424Z,60.19
2022-09-03T11:58:36.453Z,60.25
2022-09-03T12:00:41.097Z,60.54
2022-09-03T12:02:46.395Z,60.12
2022-09-03T12:04:56.180Z,60.66
2022-09-03T12:07:20.141Z,60.00
2022-09-03T12:09:36.977Z,60.01
2022-09-03T12:11:47.663Z,59.87
2022-09-03T12:13:55.153Z,60.16
2022-09-03T12:16:39.429Z,60.50
2022-09-03T12:18:43.734Z,60.56
2022-09-03T12:20:50.825Z,61.32
2022-09-03T12:25:12.071Z,61.95
2022-09-03T12:27:19.567Z,62.41
2022-09-03T12:29:27.897Z,62.85
2022-09-03T12:31:32.967Z,63.09
2022-09-03T12:33:35.977Z,62.55
2022-09-03T12:38:04.933Z,63.44
2022-09-03T12:40:17.926Z,63.42
2022-09-03T12:42:26.272Z,63.65
2022-09-03T12:44:31.417Z,63.60
2022-09-03T12:46:35.109Z,63.58
2022-09-03T12:48:40.301Z,64.26
2022-09-03T12:50:56.198Z,64.40
2022-09-03T12:53:01.257Z,64.42
2022-09-03T12:55:09.832Z,64.60
2022-09-03T12:57:14.251Z,64.29
2022-09-03T12:59:21.466Z,65.22
2022-09-03T13:01:26.611Z,64.64
2022-09-03T13:03:31.972Z,64.41
2022-09-03T13:05:42.837Z,65.01
2022-09-03T13:07:47.739Z,65.08
2022-09-03T13:09:51.100Z,65.71
2022-09-03T13:11:55.688Z,65.66
2022-09-03T13:14:05.404Z,65.77
2022-09-03T13:16:21.156Z,66.42
2022-09-03T13:18:28.799Z,66.24
2022-09-03T13:20:35.993Z,68.93
2022-09-03T13:22:48.017Z,69.22
2022-09-03T13:25:00.842Z,71.00
2022-09-03T13:27:10.355Z,73.32
2022-09-03T13:29:39.626Z,74.98
2022-09-03T13:31:46.527Z,76.53
2022-09-03T13:33:52.690Z,77.14
2022-09-03T13:36:01.412Z,78.92
2022-09-03T13:38:10.374Z,78.88
2022-09-03T13:40:20.512Z,79.98
2022-09-03T13:42:29.332Z,79.98
2022-09-03T13:44:38.832Z,81.18
2022-09-03T13:46:45.961Z,80.74
2022-09-03T13:49:07.382Z,80.68
2022-09-03T13:51:13.244Z,80.05
2022-09-03T13:53:22.725Z,79.89
2022-09-03T13:55:30.721Z,79.64
2022-09-03T13:57:39.856Z,79.44
2022-09-03T13:59:49.222Z,80.13
2022-09-03T14:02:02.144Z,79.61
2022-09-03T14:04:05.335Z,79.59
2022-09-03T14:06:14.493Z,79.20
2022-09-03T14:08:25.162Z,79.67
2022-09-03T14:10:35.212Z,79.15
2022-09-03T14:12:44.263Z,78.90
2022-09-03T14:14:54.856Z,79.59
2022-09-03T14:17:01.546Z,80.85
2022-09-03T14:19:07.544Z,79.90
2022-09-03T14:21:14.706Z,78.35
2022-09-03T14:23:29.214Z,78.55
2022-09-03T14:25:32.597Z,78.77
2022-09-03T14:27:36.601Z,79.44
2022-09-03T14:29:52.787Z,77.88
2022-09-03T14:32:15.445Z,76.49
2022-09-03T14:34:25.604Z,75.71
2022-09-03T14:36:36.753Z,76.33
2022-09-03T14:38:52.804Z,75.87
2022-09-03T14:41:05.807Z,76.46
2022-09-03T14:43:17.400Z,76.69
2022-09-03T14:45:45.432Z,75.84
2022-09-03T14:48:02.253Z,76.67
2022-09-03T14:50:13.874Z,76.34
2022-09-03T14:52:29.745Z,78.12
2022-09-03T14:54:51.997Z,76.63
2022-09-03T14:57:07.472Z,77.31
2022-09-03T14:59:25.583Z,77.29
2022-09-03T15:01:39.740Z,77.46
2022-09-03T15:04:34.435Z,78.03
2022-09-03T15:06:44.340Z,77.22
2022-09-03T15:09:09.260Z,77.67
2022-09-03T15:11:17.958Z,78.03
2022-09-03T15:13:22.426Z,77.75
2022-09-03T15:15:33.699Z,77.35
2022-09-03T15:17:57.535Z,77.73
2022-09-03T15:20:12.140Z,77.55
2022-09-03T15:22:21.161Z,77.42
2022-09-03T15:24:31.082Z,77.03
2022-09-03T15:26:48.575Z,77.65
2022-09-03T15:29:01.824Z,78.20
2022-09-03T15:31:13.619Z,78.30
2022-09-03T15:33:24.748Z,78.85
2022-09-03T15:35:41.229Z,78.45
2022-09-03T15:37:47.108Z,78.31
2022-09-03T15:40:00.693Z,79.12
2022-09-03T15:42:09.201Z,78.45
2022-09-03T15:44:19.167Z,79.20
2022-09-03T15:46:38.400Z,79.31
2022-09-03T15:48:50.496Z,78.75
2022-09-03T15:50:57.232Z,79.55
2022-09-03T15:53:04.990Z,78.93
2022-09-03T15:55:10.289Z,79.33
2022-09-03T15:57:17.702Z,79.69
2022-09-03T15:59:23.682Z,79.75
2022-09-03T16:01:44.770Z,79.58
2022-09-03T16:04:01.158Z,81.23
2022-09-03T16:06:07.775Z,81.60
2022-09-03T16:08:22.104Z,81.76
2022-09-03T16:10:36.800Z,80.58
2022-09-03T16:12:46.558Z,80.13
2022-09-03T16:14:55.301Z,80.32
2022-09-03T16:17:02.995Z,81.11
2022-09-03T16:19:12.133Z,80.39
2022-09-03T16:21:23.753Z,80.08
2022-09-03T16:23:29.866Z,78.98
2022-09-03T16:25:38.602Z,80.34
2022-09-03T16:27:47.595Z,80.04
2022-09-03T16:30:03.445Z,80.89
2022-09-03T16:32:26.946Z,80.49
2022-09-03T16:34:37.839Z,80.38
2022-09-03T16:36:45.778Z,81.07
2022-09-03T16:38:54.248Z,80.71
2022-09-03T16:41:00.504Z,81.47
2022-09-03T16:43:23.812Z,81.23
2022-09-03T16:45:36.423Z,81.51
2022-09-03T16:47:55.570Z,82.32
2022-09-03T16:50:09.701Z,81.81
2022-09-03T16:52:18.358Z,82.21
2022-09-03T16:54:33.748Z,82.49
2022-09-03T16:56:51.003Z,82.44
2022-09-03T16:58:59.131Z,82.22
2022-09-03T17:01:12.184Z,82.35
2022-09-03T17:03:41.685Z,82.02
2022-09-03T17:06:22.379Z,81.90
2022-09-03T17:08:31.664Z,81.99
2022-09-03T17:10:42.429Z,82.37
2022-09-03T17:12:51.110Z,82.37
2022-09-03T17:15:24.500Z,82.68
2022-09-03T17:17:49.081Z,82.58
2022-09-03T17:19:54.951Z,82.41
2022-09-03T17:22:10.101Z,82.53
2022-09-03T17:24:35.942Z,83.01
2022-09-03T17:26:52.036Z,82.78
2022-09-03T17:29:04.993Z,83.19
2022-09-03T17:31:16.117Z,81.76
2022-09-03T17:33:48.087Z,83.57
2022-09-03T17:35:56.686Z,83.14
2022-09-03T17:38:09.426Z,83.32
2022-09-03T17:40:24.079Z,82.69
2022-09-03T17:42:33.080Z,82.83
2022-09-03T17:44:47.767Z,82.66
2022-09-03T17:47:00.395Z,83.90
2022-09-03T17:49:04.678Z,83.92
2022-09-03T17:51:12.409Z,84.68
2022-09-03T17:53:24.756Z,84.37
2022-09-03T17:55:32.744Z,84.69
2022-09-03T17:57:41.660Z,85.92
2022-09-03T17:59:48.317Z,85.71
2022-09-03T18:01:54.428Z,85.94
2022-09-03T18:04:04.943Z,85.46
2022-09-03T18:06:10.695Z,84.66
2022-09-03T18:08:17.483Z,85.67
2022-09-03T18:10:27.002Z,84.54
2022-09-03T18:12:38.903Z,84.95
2022-09-03T18:14:47.229Z,86.08
2022-09-03T18:16:56.060Z,85.68
2022-09-03T18:19:02.913Z,85.43
2022-09-03T18:21:31.290Z,85.56
2022-09-03T18:23:59.945Z,86.71
2022-09-03T18:26:25.505Z,86.22
2022-09-03T18:28:52.674Z,86.76
2022-09-03T18:31:13.487Z,85.98
2022-09-03T18:33:37.370Z,86.09
2022-09-03T18:35:58.223Z,84.84
2022-09-03T18:38:21.187Z,85.79
2022-09-03T18:40:47.031Z,85.03
2022-09-03T18:43:17.945Z,85.96
2022-09-03T18:46:17.600Z,85.97
2022-09-03T18:48:30.595Z,86.24
2022-09-03T18:50:55.425Z,86.98
2022-09-03T18:53:18.616Z,85.37
2022-09-03T18:55:43.930Z,87.04
2022-09-03T18:58:13.704Z,86.55
2022-09-03T19:00:34.633Z,85.34
2022-09-03T19:03:01.686Z,86.42
2022-09-03T19:05:31.362Z,86.25
2022-09-03T19:08:00.280Z,86.43
2022-09-03T19:10:27.055Z,87.71
2022-09-03T19:13:17.365Z,88.39
2022-09-03T19:15:43.336Z,86.62
2022-09-03T19:18:23.502Z,88.06
2022-09-03T19:20:47.543Z,86.84
2022-09-03T19:23:08.314Z,87.95
2022-09-03T19:25:30.836Z,88.30
2022-09-03T19:27:59.913Z,88.98
2022-09-03T19:30:25.052Z,88.68
2022-09-03T19:32:54.886Z,88.60
2022-09-03T19:35:27.896Z,90.46
2022-09-03T19:37:52.164Z,90.78
2022-09-03T19:40:36.143Z,90.31
2022-09-03T19:43:06.057Z,89.38
2022-09-03T19:45:33.670Z,89.78
2022-09-03T19:48:04.090Z,91.44
2022-09-03T19:50:32.119Z,91.06
2022-09-03T19:52:59.538Z,90.53
2022-09-03T19:55:21.217Z,90.15
2022-09-03T19:57:42.242Z,90.34
2022-09-03T20:00:04.277Z,90.17
2022-09-03T20:02:34.010Z,91.63
2022-09-03T20:04:58.709Z,91.35
2022-09-03T20:07:21.830Z,90.49
2022-09-03T20:09:48.203Z,90.84
2022-09-03T20:11:52.407Z,91.76
2022-09-03T20:14:14.758Z,90.87
2022-09-03T20:16:24.733Z,91.54
2022-09-03T20:18:40.077Z,93.04
2022-09-03T20:20:47.489Z,91.78
2022-09-03T20:22:54.873Z,92.66
2022-09-03T20:25:12.949Z,92.94
2022-09-03T20:27:24.316Z,90.98
2022-09-03T20:29:44.493Z,92.73
2022-09-03T20:31:51.677Z,91.28
2022-09-03T20:34:11.902Z,91.31
2022-09-03T20:36:22.551Z,91.33
2022-09-03T20:38:43.749Z,90.83
2022-09-03T20:40:48.177Z,92.04
2022-09-03T20:43:15.089Z,91.32
2022-09-03T20:45:19.818Z,92.81
2022-09-03T20:47:49.413Z,91.67
2022-09-03T20:49:56.912Z,92.15
2022-09-03T20:52:07.420Z,92.32
2022-09-03T20:54:14.565Z,92.23
2022-09-03T20:56:22.586Z,91.95
2022-09-03T20:58:32.069Z,92.07
2022-09-03T21:00:48.106Z,91.62
2022-09-03T21:03:04.456Z,91.54
2022-09-03T21:05:16.053Z,93.07
2022-09-03T21:07:24.894Z,93.09
2022-09-03T21:09:33.540Z,91.90
2022-09-03T21:11:41.540Z,93.07
2022-09-03T21:13:51.935Z,92.61
2022-09-03T21:15:59.945Z,92.48
2022-09-03T21:18:07.966Z,92.11
2022-09-03T21:20:19.974Z,92.77
2022-09-03T21:22:30.557Z,93.26
2022-09-03T21:24:37.635Z,92.07
2022-09-03T21:26:46.096Z,92.54
2022-09-03T21:28:55.925Z,92.11
2022-09-03T21:31:00.757Z,93.25
2022-09-03T21:33:06.221Z,92.00
2022-09-03T21:35:17.326Z,92.38
2022-09-03T21:37:21.453Z,93.13
2022-09-03T21:39:28.431Z,93.57
2022-09-03T21:41:34.005Z,92.27
2022-09-03T21:43:41.000Z,93.44
2022-09-03T21:45:51.028Z,93.98
2022-09-03T21:47:58.845Z,93.04
2022-09-03T21:50:10.897Z,94.57
2022-09-03T21:52:21.322Z,93.73
2022-09-03T21:54:28.910Z,93.46
2022-09-03T21:56:57.364Z,93.85
2022-09-03T21:59:09.523Z,94.53
2022-09-03T22:01:16.340Z,93.53
2022-09-03T22:03:19.570Z,93.50
2022-09-03T22:05:22.779Z,93.27
2022-09-03T22:07:39.924Z,93.52
2022-09-03T22:09:47.030Z,93.25
2022-09-03T22:11:54.107Z,94.59
2022-09-03T22:14:04.190Z,94.08
2022-09-03T22:16:13.422Z,95.26
2022-09-03T22:18:23.912Z,94.63
2022-09-03T22:20:32.073Z,93.71
2022-09-03T22:22:44.168Z,93.97
2022-09-03T22:24:50.974Z,93.95
2022-09-03T22:26:59.247Z,94.04
2022-09-03T22:29:06.806Z,94.51
2022-09-03T22:31:16.522Z,93.69
2022-09-03T22:33:23.655Z,93.65
2022-09-03T22:35:57.605Z,94.57
2022-09-03T22:38:18.612Z,93.32
2022-09-03T22:40:25.995Z,94.94
2022-09-03T22:42:51.288Z,94.84
2022-09-03T22:45:10.186Z,95.31
2022-09-03T22:47:20.013Z,94.25
2022-09-03T22:49:33.303Z,95.45
2022-09-03T22:51:45.794Z,94.52
2022-09-03T22:54:03.846Z,94.32
2022-09-03T22:56:09.029Z,94.70
2022-09-03T22:58:15.612Z,94.22
2022-09-03T23:00:19.183Z,94.37
2022-09-03T23:02:25.267Z,93.89
2022-09-03T23:04:31.650Z,94.75
2022-09-03T23:06:38.440Z,95.03
2022-09-03T23:08:46.132Z,93.94
2022-09-03T23:11:03.805Z,94.93
2022-09-03T23:13:10.517Z,95.37
2022-09-03T23:15:17.048Z,94.93
2022-09-03T23:19:30.538Z,94.46
2022-09-03T23:21:40.463Z,94.03
2022-09-03T23:23:48.273Z,94.89
2022-09-03T23:25:54.991Z,95.36
2022-09-03T23:28:02.256Z,94.94
2022-09-03T23:30:06.379Z,94.90
2022-09-03T23:32:10.112Z,95.65
2022-09-03T23:34:13.855Z,94.79
2022-09-03T23:36:51.099Z,94.91
2022-09-03T23:38:54.603Z,95.64
2022-09-03T23:40:58.734Z,96.16
2022-09-03T23:43:17.460Z,96.24
2022-09-03T23:45:27.955Z,95.88
2022-09-03T23:47:39.600Z,96.53
2022-09-03T23:49:50.334Z,95.48
2022-09-03T23:52:11.387Z,95.25
2022-09-03T23:54:20.940Z,95.88
2022-09-03T23:56:38.558Z,95.64
2022-09-03T23:58:51.211Z,95.87
